This is the latest recevied weather packets stored in our database for station/object LEAS. If no packets are shown the sender has not sent any weather packets the latest 10 day(s).
| Time | Temp. | Humidity | Pressure | Rain* | Wind** | Luminosity | Snow |
|---|---|---|---|---|---|---|---|
| 1788007503 | 23.89° C | 57% | 1017 hPa | - | - | - | - |
| 1788005702 | 25° C | 50% | 1017 hPa | - | - | - | - |
| 1788004804 | 25° C | 53% | 1017 hPa | - | - | - | - |
| 1788003003 | 26.11° C | 50% | 1017 hPa | - | - | - | - |
| 1788000303 | 25° C | 50% | 1018 hPa | - | - | - | - |
| 1787999403 | 23.89° C | 50% | 1017 hPa | - | - | - | - |
| 1787998502 | 23.89° C | 50% | 1017 hPa | - | - | - | - |
| 1787996703 | 22.78° C | 53% | 1017 hPa | - | - | - | - |
| 1787994903 | 21.11° C | 60% | 1017 hPa | - | - | - | - |
| 1787994003 | 21.11° C | 56% | 1017 hPa | - | - | - | - |
| 1787993103 | 21.11° C | 56% | 1017 hPa | - | - | - | - |
| 1787992203 | 18.89° C | 59% | 1017 hPa | - | - | - | - |
| 1787991303 | 18.89° C | 59% | 1017 hPa | - | - | - | - |
| 1787990403 | 17.78° C | 63% | 1017 hPa | - | - | - | - |
| 1787989504 | 17.78° C | 63% | 1017 hPa | - | - | - | - |
| 1787988602 | 17.22° C | 72% | 1017 hPa | - | - | - | - |
| 1787986803 | 15° C | 82% | 1017 hPa | - | - | - | - |
| 1787985003 | 15° C | 87% | 1017 hPa | - | - | - | - |
| 1787984103 | 15° C | 87% | 1017 hPa | - | - | - | - |
| 1787983204 | 16.11° C | 82% | 1017 hPa | - | - | - | - |
| 1787982302 | 16.11° C | 82% | 1017 hPa | - | - | - | - |
| 1787981403 | 15° C | 87% | 1017 hPa | - | - | - | - |
| 1787980503 | 15° C | 87% | 1017 hPa | - | - | - | - |
| 1787977803 | 15° C | 87% | 1018 hPa | - | - | - | - |
| 1787974203 | 15° C | 93% | 1018 hPa | - | - | - | - |
* Rain since midnight (hover to see other rain measurements)
** Current wind speed in m/s (hover to see current wind gust speed)